Time;durP1;ratioP1;P1;durP2;ratioP2;P2;SDS_P1;SDS_P2;PMS_P1;PMS_P2;Temp;Humidity;BMP_temperature;BMP_pressure;BME280_temperature;BME280_humidity;BME280_pressure;Samples;Min_cycle;Max_cycle;Signal;HPM_P1;HPM_P2
2023/03/01 00:04:42;;;;;;;2.42;2.10;;;;;;;20.16;43.66;97821.63;10306633;28;20054;-74
2023/03/01 00:10:03;;;;;;;4.00;2.50;;;;;;;20.14;43.64;97818.41;10306322;28;20047;-73
2023/03/01 00:15:23;;;;;;;2.90;2.30;;;;;;;20.12;43.66;97816.00;10306100;28;20046;-73
2023/03/01 00:20:49;;;;;;;3.05;2.17;;;;;;;20.10;43.51;97820.91;10306026;28;20046;-73
2023/03/01 00:26:10;;;;;;;4.03;2.30;;;;;;;20.10;43.50;97814.72;10305951;28;20043;-74
2023/03/01 00:31:32;;;;;;;3.30;2.28;;;;;;;20.09;43.43;97813.09;10283336;28;20062;-73
2023/03/01 00:36:52;;;;;;;3.40;2.80;;;;;;;20.07;43.36;97808.00;10291114;28;20510;-73
2023/03/01 00:42:12;;;;;;;4.75;2.17;;;;;;;20.05;43.40;97817.50;10292308;28;20381;-74
2023/03/01 00:47:31;;;;;;;3.28;2.70;;;;;;;20.03;43.25;97806.19;10277747;28;20105;-73
2023/03/01 00:52:55;;;;;;;3.15;2.50;;;;;;;20.04;43.34;97807.81;10308471;28;20046;-74
2023/03/01 00:58:15;;;;;;;3.80;2.72;;;;;;;20.01;43.28;97789.47;10298824;28;20053;-74
2023/03/01 01:03:34;;;;;;;2.72;2.30;;;;;;;20.00;43.11;97785.19;10298833;28;20105;-74
2023/03/01 01:08:54;;;;;;;3.05;2.33;;;;;;;19.97;43.31;97786.56;10298514;28;20400;-74
2023/03/01 01:14:14;;;;;;;3.35;2.30;;;;;;;19.94;43.18;97782.56;10298342;28;20047;-73
2023/03/01 01:19:34;;;;;;;2.63;2.22;;;;;;;19.94;43.24;97779.06;10298005;28;20046;-74
2023/03/01 01:24:53;;;;;;;2.95;2.30;;;;;;;19.92;43.11;97773.97;10312647;28;20468;-73
2023/03/01 01:30:13;;;;;;;3.40;2.40;;;;;;;19.90;43.03;97769.97;10284292;28;20393;-74
2023/03/01 01:35:32;;;;;;;2.65;2.30;;;;;;;19.88;43.18;97762.16;10297518;28;20042;-73
2023/03/01 01:40:52;;;;;;;2.63;2.20;;;;;;;19.86;43.08;97752.75;10297145;28;20050;-73
2023/03/01 01:46:30;;;;;;;3.05;2.30;;;;;;;19.83;42.94;97751.44;10297033;28;20109;-74
2023/03/01 01:51:50;;;;;;;;;;;;;;;19.83;42.75;97750.63;10297267;28;20042;-73
2023/03/01 01:57:14;;;;;;;2.72;2.20;;;;;;;19.81;42.85;97745.53;10296539;28;19944;-73
2023/03/01 02:02:34;;;;;;;2.88;2.28;;;;;;;19.79;42.90;97736.13;10296201;28;20050;-73
2023/03/01 02:07:53;;;;;;;2.72;1.98;;;;;;;19.78;42.86;97743.44;10310936;28;20085;-73
2023/03/01 02:13:13;;;;;;;3.42;2.22;;;;;;;19.75;42.88;97744.81;10296168;28;20055;-74
2023/03/01 02:18:33;;;;;;;2.92;2.20;;;;;;;19.73;42.82;97732.72;10295868;28;20476;-73
2023/03/01 02:23:55;;;;;;;3.47;2.40;;;;;;;19.71;42.70;97732.19;10295724;28;20400;-73
2023/03/01 02:29:14;;;;;;;3.30;2.53;;;;;;;19.70;42.85;97736.81;10293968;28;20066;-73
2023/03/01 02:34:34;;;;;;;2.90;2.40;;;;;;;19.68;42.87;97740.91;10282079;28;20047;-74
2023/03/01 02:39:59;;;;;;;3.03;2.28;;;;;;;19.66;42.56;97740.41;10295101;28;20061;-74
2023/03/01 02:45:19;;;;;;;2.97;2.30;;;;;;;19.65;42.67;97736.13;10294919;28;20415;-74
2023/03/01 02:51:00;;;;;;;2.88;2.15;;;;;;;19.63;42.50;97735.63;10309582;28;20094;-74
2023/03/01 02:56:20;;;;;;;2.90;2.15;;;;;;;19.61;42.69;97729.72;10309193;28;20046;-74
2023/03/01 03:01:39;;;;;;;2.78;2.28;;;;;;;19.58;42.72;97725.69;10294299;28;20039;-74
2023/03/01 03:07:00;;;;;;;2.42;2.22;;;;;;;19.55;42.63;97721.69;10294120;28;20118;-74
2023/03/01 03:12:20;;;;;;;2.67;2.20;;;;;;;19.54;42.67;97709.28;10294037;28;20054;-74
2023/03/01 03:17:41;;;;;;;2.22;2.03;;;;;;;19.52;42.73;97716.91;10307572;28;20171;-74
2023/03/01 03:23:01;;;;;;;2.17;1.98;;;;;;;19.51;42.73;97709.88;10293523;28;20094;-74
2023/03/01 03:28:20;;;;;;;2.42;2.13;;;;;;;19.49;42.71;97709.38;10293311;28;20059;-74
2023/03/01 03:33:39;;;;;;;2.40;2.10;;;;;;;19.46;42.60;97709.19;10279598;28;20051;-74
2023/03/01 03:38:59;;;;;;;2.50;2.00;;;;;;;19.45;42.68;97708.41;10307482;28;20035;-74
2023/03/01 03:44:19;;;;;;;2.03;1.83;;;;;;;19.44;42.61;97709.47;10307418;28;20049;-73
2023/03/01 03:49:38;;;;;;;2.45;2.00;;;;;;;19.42;42.72;97703.56;10307142;28;20054;-73
2023/03/01 03:54:57;;;;;;;2.35;1.98;;;;;;;19.41;42.66;97710.09;10306960;28;20050;-73
2023/03/01 04:00:19;;;;;;;2.17;1.95;;;;;;;19.38;42.64;97701.78;10292120;28;20038;-73
2023/03/01 04:05:39;;;;;;;2.20;2.00;;;;;;;19.36;42.60;97699.38;10292021;28;20043;-73
2023/03/01 04:11:25;;;;;;;2.67;2.17;;;;;;;19.35;42.65;97700.50;10278499;28;20403;-74
2023/03/01 04:16:40;;;;;;;2.50;1.90;;;;;;;19.32;42.46;97695.69;10294590;28;20065;-73
2023/03/01 04:22:00;;;;;;;2.67;2.15;;;;;;;19.32;42.61;97706.50;10291623;28;20039;-74
2023/03/01 04:27:19;;;;;;;2.20;2.00;;;;;;;19.29;42.37;97702.50;10291446;28;20412;-73
2023/03/01 04:32:39;;;;;;;2.25;1.95;;;;;;;19.27;42.46;97706.59;10295145;28;20047;-73
2023/03/01 04:37:58;;;;;;;2.13;1.92;;;;;;;19.25;42.42;97701.50;10277770;28;20062;-73
2023/03/01 04:43:18;;;;;;;2.83;2.20;;;;;;;19.23;42.45;97687.50;10291104;28;20105;-73
2023/03/01 04:48:40;;;;;;;2.20;2.00;;;;;;;19.22;42.41;97698.59;10305515;28;20050;-73
2023/03/01 04:54:00;;;;;;;2.22;2.00;;;;;;;19.20;42.40;97703.50;10305395;28;20043;-74
2023/03/01 04:59:22;;;;;;;1.80;1.70;;;;;;;19.19;42.49;97701.88;10305988;28;20042;-74
2023/03/01 05:04:41;;;;;;;2.40;1.95;;;;;;;19.15;42.54;97712.47;10291065;28;20506;-73
2023/03/01 05:10:01;;;;;;;2.47;1.90;;;;;;;19.15;42.42;97713.31;10290514;28;20534;-73
2023/03/01 05:15:21;;;;;;;2.58;2.03;;;;;;;19.11;42.49;97704.19;10305183;28;20073;-74
2023/03/01 05:20:41;;;;;;;2.80;2.00;;;;;;;19.10;42.41;97699.88;10304958;28;20399;-73
2023/03/01 05:26:03;;;;;;;1.90;1.80;;;;;;;19.10;42.35;97699.88;10290258;28;20043;-73
2023/03/01 05:31:23;;;;;;;1.95;1.75;;;;;;;19.10;42.26;97699.88;10282692;28;20062;-73
2023/03/01 05:36:42;;;;;;;2.30;2.10;;;;;;;19.10;42.32;97688.28;10304034;28;20046;-73
2023/03/01 05:42:01;;;;;;;2.33;2.08;;;;;;;19.11;42.33;97697.97;10309336;28;20483;-73
2023/03/01 05:47:21;;;;;;;2.22;1.83;;;;;;;19.11;42.08;97700.66;10296345;28;20050;-73
2023/03/01 05:52:40;;;;;;;2.28;2.08;;;;;;;19.13;42.47;97695.78;10300633;28;20113;-73
2023/03/01 05:58:05;;;;;;;2.08;1.88;;;;;;;19.16;42.47;97685.16;10296110;28;20038;-73
2023/03/01 06:03:25;;;;;;;2.35;2.00;;;;;;;19.18;42.68;97676.78;10295079;28;20048;-73
2023/03/01 06:08:44;;;;;;;2.15;1.95;;;;;;;19.21;42.72;97687.00;10296356;28;20054;-74
2023/03/01 06:14:04;;;;;;;2.25;2.05;;;;;;;19.23;42.77;97690.19;10310527;28;20042;-73
2023/03/01 06:19:23;;;;;;;2.45;2.25;;;;;;;19.25;42.69;97681.75;10280569;28;20050;-74
2023/03/01 06:24:43;;;;;;;2.20;2.00;;;;;;;19.27;42.91;97679.59;10307686;28;20042;-73
2023/03/01 06:30:03;;;;;;;2.47;1.90;;;;;;;19.30;43.02;97673.56;10291779;28;20089;-73
2023/03/01 06:35:22;;;;;;;2.38;2.17;;;;;;;19.31;42.59;97667.09;10308617;28;20553;-73
2023/03/01 06:40:42;;;;;;;2.72;2.25;;;;;;;19.34;42.59;97671.88;10306480;28;20039;-73
2023/03/01 06:46:05;;;;;;;2.17;1.90;;;;;;;19.38;42.63;97672.84;10277620;28;20043;-73
2023/03/01 06:51:25;;;;;;;2.00;1.88;;;;;;;19.40;42.67;97684.16;10289225;28;20050;-74
2023/03/01 06:56:49;;;;;;;2.88;1.90;;;;;;;19.44;42.65;97679.75;10306946;28;20043;-74
2023/03/01 07:02:12;;;;;;;3.40;2.22;;;;;;;19.48;42.81;97686.19;10292918;28;20051;-74
2023/03/01 07:07:31;;;;;;;2.70;2.10;;;;;;;19.50;42.73;97675.88;10293996;28;20051;-73
2023/03/01 07:12:54;;;;;;;4.07;1.88;;;;;;;19.54;42.75;97681.44;10293892;28;20053;-73
2023/03/01 07:18:14;;;;;;;2.90;2.10;;;;;;;19.58;42.71;97689.75;10293659;28;20047;-73
2023/03/01 07:23:34;;;;;;;2.33;2.03;;;;;;;19.62;42.81;97688.03;10307950;28;20053;-73
2023/03/01 07:28:54;;;;;;;2.78;2.10;;;;;;;19.65;42.91;97690.16;10279076;28;20061;-73
2023/03/01 07:34:13;;;;;;;3.53;2.00;;;;;;;19.68;42.65;97692.25;10307790;28;20498;-73
2023/03/01 07:39:33;;;;;;;2.28;1.90;;;;;;;19.70;42.77;97693.56;10292769;28;20042;-73
2023/03/01 07:44:52;;;;;;;2.60;2.35;;;;;;;19.74;42.65;97704.59;10307254;28;20049;-74
2023/03/01 07:50:13;;;;;;;3.13;2.15;;;;;;;19.78;42.82;97697.47;10292658;28;20492;-74
2023/03/01 07:55:32;;;;;;;2.53;2.13;;;;;;;19.83;42.22;97697.34;10292424;28;20039;-74
2023/03/01 08:00:52;;;;;;;2.45;2.20;;;;;;;19.85;42.24;97687.03;10306429;28;20047;-74
2023/03/01 08:06:13;;;;;;;6.68;2.67;;;;;;;19.89;42.08;97688.00;10291993;28;20411;-73
2023/03/01 08:11:32;;;;;;;8.85;2.80;;;;;;;19.93;42.44;97690.91;10306573;28;20101;-73
2023/03/01 08:16:51;;;;;;;7.32;3.63;;;;;;;19.97;41.80;97685.72;10306251;28;20384;-73
2023/03/01 08:22:11;;;;;;;6.80;3.92;;;;;;;19.99;42.08;97687.00;10291665;28;20483;-74
2023/03/01 08:27:30;;;;;;;7.15;3.78;;;;;;;20.03;42.14;97689.88;10291483;28;20054;-73
2023/03/01 08:32:50;;;;;;;9.82;3.80;;;;;;;20.07;41.92;97699.00;10294842;28;20061;-73
2023/03/01 08:38:10;;;;;;;8.98;3.90;;;;;;;20.09;42.12;97697.59;10277815;28;20039;-73
2023/03/01 08:43:29;;;;;;;7.90;3.95;;;;;;;20.15;42.09;97698.28;10291158;28;20039;-73
2023/03/01 08:48:49;;;;;;;6.50;3.55;;;;;;;20.19;41.92;97695.75;10291170;28;20042;-74
2023/03/01 08:54:14;;;;;;;7.10;3.47;;;;;;;20.23;42.14;97697.56;10292946;28;20097;-74
2023/03/01 08:59:37;;;;;;;10.45;4.07;;;;;;;20.26;42.13;97680.69;10291004;28;20046;-74
2023/03/01 09:04:56;;;;;;;9.25;4.13;;;;;;;20.30;42.13;97673.53;10291324;28;20388;-74
2023/03/01 09:10:16;;;;;;;7.85;4.10;;;;;;;20.32;42.16;97668.63;10291115;28;20147;-74
2023/03/01 09:15:39;;;;;;;6.00;3.55;;;;;;;20.37;42.26;97665.00;10296356;28;20061;-73
2023/03/01 09:21:02;;;;;;;6.45;3.92;;;;;;;20.40;42.34;97647.34;10298219;28;20043;-73
2023/03/01 09:26:22;;;;;;;6.28;3.35;;;;;;;20.44;42.22;97653.75;10312829;28;20054;-73
2023/03/01 09:31:43;;;;;;;9.18;3.80;;;;;;;20.48;42.27;97643.91;10289850;28;20054;-74
2023/03/01 09:37:02;;;;;;;5.50;3.25;;;;;;;20.51;42.19;97644.06;10297878;28;20043;-74
2023/03/01 09:42:22;;;;;;;5.22;3.25;;;;;;;20.54;42.14;97643.47;10312163;28;20039;-73
2023/03/01 09:47:41;;;;;;;5.85;3.45;;;;;;;20.57;42.20;97641.25;10297342;28;20046;-73
2023/03/01 09:53:05;;;;;;;4.78;3.03;;;;;;;20.59;42.36;97642.56;10297408;28;20042;-74
2023/03/01 09:58:39;;;;;;;6.50;3.40;;;;;;;20.62;42.23;97641.13;10297339;28;20049;-74
2023/03/01 10:04:32;;;;;;;5.28;3.20;;;;;;;20.62;42.21;97627.59;10297045;28;20053;-74
2023/03/01 10:09:52;;;;;;;4.75;3.03;;;;;;;20.63;42.49;97632.72;10296664;28;20050;-73
2023/03/01 10:15:18;;;;;;;5.57;3.47;;;;;;;20.65;42.32;97629.69;10310983;28;20043;-73
2023/03/01 10:20:47;;;;;;;4.38;3.03;;;;;;;20.65;42.38;97619.66;10296205;28;20034;-73
2023/03/01 10:26:15;;;;;;;5.53;3.35;;;;;;;20.66;42.38;97617.75;10295739;28;20514;-73
2023/03/01 10:31:44;;;;;;;5.95;3.08;;;;;;;20.68;42.24;97612.81;10288215;28;20408;-73
2023/03/01 10:37:11;;;;;;;;;;;;;;;20.67;42.24;97603.91;10296052;28;20406;-73
2023/03/01 10:42:38;;;;;;;3.70;2.72;;;;;;;20.68;42.56;97597.38;10295637;28;19946;-73
2023/03/01 10:48:09;;;;;;;4.40;2.78;;;;;;;20.68;42.44;97589.25;10295430;28;20078;-73
2023/03/01 10:53:32;;;;;;;4.35;2.70;;;;;;;20.68;42.44;97589.25;10309927;28;20050;-73
2023/03/01 10:58:59;;;;;;;4.93;2.63;;;;;;;20.68;42.67;97572.19;10294962;28;20479;-74
2023/03/01 11:04:19;;;;;;;4.35;2.65;;;;;;;20.69;42.52;97568.41;10309419;28;20117;-74
2023/03/01 11:09:38;;;;;;;4.13;2.90;;;;;;;20.69;42.38;97561.06;10294752;28;20117;-74
2023/03/01 11:14:58;;;;;;;3.55;2.90;;;;;;;20.70;42.40;97559.97;10308904;28;20043;-74
2023/03/01 11:20:24;;;;;;;11.45;9.82;;;;;;;20.33;29.09;97551.19;10294224;28;20483;-73
2023/03/01 11:25:49;;;;;;;13.20;11.45;;;;;;;19.60;26.38;97545.13;10293949;28;20039;-74
2023/03/01 11:31:14;;;;;;;12.95;10.75;;;;;;;19.01;25.80;97549.66;10287289;28;20055;-74
2023/03/01 11:36:53;;;;;;;10.73;9.25;;;;;;;19.04;28.47;97533.66;10293504;28;20078;-73
2023/03/01 11:42:17;;;;;;;8.70;7.43;;;;;;;19.54;30.91;97528.22;10293246;28;20047;-74
2023/03/01 11:48:21;;;;;;;10.13;6.88;;;;;;;19.85;31.05;97524.00;10293014;28;20051;-74
2023/03/01 11:54:18;;;;;;;9.20;6.85;;;;;;;20.06;31.57;97527.00;10275954;28;20062;-73
2023/03/01 12:00:28;;;;;;;8.70;6.97;;;;;;;20.18;30.52;97511.00;10292686;28;20046;-73
2023/03/01 12:06:16;;;;;;;12.73;7.07;;;;;;;20.25;31.40;97507.84;10248937;28;20062;-73
2023/03/01 12:11:48;;;;;;;9.45;7.00;;;;;;;20.31;31.32;97507.41;10307046;28;20097;-73
2023/03/01 12:17:11;;;;;;;8.07;6.88;;;;;;;20.40;31.51;97495.81;10306842;28;20043;-73
2023/03/01 12:22:32;;;;;;;8.65;6.80;;;;;;;20.45;31.65;97485.63;10292004;28;20043;-73
2023/03/01 12:28:08;;;;;;;9.90;7.05;;;;;;;20.44;31.87;97472.41;10291971;28;20069;-73
2023/03/01 12:33:45;;;;;;;8.77;7.03;;;;;;;20.43;31.86;97465.41;10278440;28;20063;-73
2023/03/01 12:39:21;;;;;;;8.52;6.68;;;;;;;20.42;32.29;97466.53;10291648;28;20094;-73
2023/03/01 12:44:46;;;;;;;8.40;6.97;;;;;;;20.42;32.44;97463.81;10306133;28;20043;-74
2023/03/01 12:50:17;;;;;;;10.10;6.93;;;;;;;20.43;32.81;97462.72;10296555;28;20051;-74
2023/03/01 12:55:42;;;;;;;9.65;6.93;;;;;;;20.43;33.38;97454.59;10299641;28;20113;-74
2023/03/01 13:01:14;;;;;;;7.30;6.20;;;;;;;20.44;33.87;97451.56;10299334;28;20046;-74
2023/03/01 13:06:42;;;;;;;7.78;6.00;;;;;;;20.47;34.35;97448.22;10299205;28;20415;-74
2023/03/01 13:12:02;;;;;;;8.13;6.35;;;;;;;20.48;34.75;97436.31;10313956;28;20051;-73
2023/03/01 13:17:39;;;;;;;9.98;6.32;;;;;;;20.51;35.29;97449.19;10298810;28;20043;-73
2023/03/01 13:23:10;;;;;;;6.72;5.90;;;;;;;20.53;35.67;97440.75;10298751;28;20042;-74
2023/03/01 13:28:35;;;;;;;7.60;5.97;;;;;;;20.57;36.10;97439.03;10313056;28;20050;-74
2023/03/01 13:33:58;;;;;;;7.15;5.85;;;;;;;20.59;36.62;97436.00;10312776;28;20047;-74
2023/03/01 13:39:32;;;;;;;7.45;6.40;;;;;;;20.61;36.92;97436.53;10298087;28;20050;-74
2023/03/01 13:44:52;;;;;;;7.35;5.97;;;;;;;20.64;37.18;97441.28;10298022;28;20096;-74
2023/03/01 13:50:33;;;;;;;8.60;5.80;;;;;;;20.66;37.48;97445.28;10312344;28;20055;-74
2023/03/01 13:56:01;;;;;;;8.82;6.05;;;;;;;20.68;37.75;97442.25;10297355;28;20042;-74
2023/03/01 14:01:22;;;;;;;7.30;5.60;;;;;;;20.70;38.09;97432.72;10296871;28;20042;-74
2023/03/01 14:06:41;;;;;;;7.30;5.93;;;;;;;20.72;38.29;97429.69;10297146;28;20102;-74
2023/03/01 14:12:35;;;;;;;6.95;5.57;;;;;;;20.73;38.68;97436.69;10296876;28;20058;-73
2023/03/01 14:18:29;;;;;;;7.47;5.80;;;;;;;20.74;38.59;97435.59;10297772;28;20411;-74
2023/03/01 14:23:49;;;;;;;6.50;5.35;;;;;;;20.76;39.13;97425.25;10282811;28;20452;-73
2023/03/01 14:29:27;;;;;;;7.28;5.45;;;;;;;20.77;39.97;97426.03;10294785;28;20058;-74
2023/03/01 14:34:50;;;;;;;7.45;5.00;;;;;;;20.78;39.92;97424.91;10310810;28;20105;-74
2023/03/01 14:40:23;;;;;;;6.40;4.57;;;;;;;20.78;40.17;97423.00;10295820;28;20043;-75
2023/03/01 14:45:47;;;;;;;6.93;5.00;;;;;;;20.78;40.44;97422.19;10296048;28;20046;-75
2023/03/01 14:51:07;;;;;;;5.50;4.95;;;;;;;20.77;40.69;97429.53;10295480;28;20047;-74
2023/03/01 14:56:26;;;;;;;7.20;5.20;;;;;;;20.79;40.77;97437.34;10295166;28;20479;-73
2023/03/01 15:01:45;;;;;;;5.75;4.85;;;;;;;20.77;40.92;97437.66;10309313;28;20050;-74
2023/03/01 15:07:05;;;;;;;6.65;5.18;;;;;;;20.78;41.12;97436.56;10294626;28;20047;-73
2023/03/01 15:12:27;;;;;;;6.43;4.65;;;;;;;20.78;41.04;97435.72;10293627;28;20495;-73
2023/03/01 15:17:53;;;;;;;5.32;4.63;;;;;;;20.77;41.15;97428.75;10308802;28;20038;-73
2023/03/01 15:23:26;;;;;;;5.25;4.60;;;;;;;20.77;41.23;97434.16;10294244;28;20034;-73
2023/03/01 15:28:50;;;;;;;5.72;4.50;;;;;;;20.77;41.44;97434.16;10293523;28;20510;-73
2023/03/01 15:34:32;;;;;;;5.05;4.28;;;;;;;20.76;41.72;97432.53;10293910;28;20046;-73
2023/03/01 15:39:56;;;;;;;6.90;4.50;;;;;;;20.76;41.54;97427.94;10293529;28;20046;-73
2023/03/01 15:45:16;;;;;;;5.28;4.28;;;;;;;20.74;41.63;97432.88;10293563;28;20047;-73
2023/03/01 15:50:39;;;;;;;4.93;4.20;;;;;;;20.72;41.38;97416.94;10307877;28;20054;-73
2023/03/01 15:55:59;;;;;;;5.63;4.40;;;;;;;20.71;41.47;97414.56;10293048;28;20045;-73
2023/03/01 16:01:18;;;;;;;5.15;4.65;;;;;;;20.69;41.46;97425.69;10279792;28;20415;-73
2023/03/01 16:06:39;;;;;;;5.35;4.18;;;;;;;20.69;41.40;97420.28;10293137;28;20049;-73
2023/03/01 16:11:58;;;;;;;5.53;4.40;;;;;;;20.67;41.55;97421.72;10292470;28;20054;-73
2023/03/01 16:17:18;;;;;;;5.18;4.25;;;;;;;20.67;41.54;97429.84;10292312;28;20053;-73
2023/03/01 16:22:37;;;;;;;5.43;4.25;;;;;;;20.66;41.47;97433.63;10306469;28;20043;-73
2023/03/01 16:27:58;;;;;;;5.63;4.18;;;;;;;20.63;41.69;97426.97;10278980;28;20046;-73
2023/03/01 16:33:18;;;;;;;5.50;4.30;;;;;;;20.63;42.05;97428.88;10279297;28;20051;-74
2023/03/01 16:38:38;;;;;;;5.13;4.43;;;;;;;20.62;40.65;97433.50;10291554;28;20046;-74
2023/03/01 16:43:58;;;;;;;6.22;4.93;;;;;;;20.61;41.03;97426.47;10291785;28;20042;-73
2023/03/01 16:49:18;;;;;;;6.95;4.55;;;;;;;20.59;41.03;97417.88;10291480;28;20093;-74
2023/03/01 16:54:37;;;;;;;4.95;3.83;;;;;;;20.57;41.16;97420.06;10291291;28;20047;-73
2023/03/01 16:59:57;;;;;;;7.25;4.15;;;;;;;20.55;41.25;97414.19;10291240;28;20046;-74
2023/03/01 17:05:17;;;;;;;4.88;4.07;;;;;;;20.53;41.39;97409.06;10305737;28;20403;-72
2023/03/01 17:10:37;;;;;;;6.57;4.22;;;;;;;20.52;41.58;97415.63;10291289;28;20050;-73
2023/03/01 17:15:56;;;;;;;6.53;5.90;;;;;;;20.52;41.66;97412.09;10291064;28;20039;-73
2023/03/01 17:21:16;;;;;;;6.38;5.78;;;;;;;20.50;41.69;97409.72;10291103;28;20042;-73
2023/03/01 17:26:35;;;;;;;6.90;5.30;;;;;;;20.50;41.90;97415.13;10291044;28;20047;-72
2023/03/01 17:31:55;;;;;;;5.43;4.60;;;;;;;20.48;41.96;97416.53;10282172;28;20471;-73
2023/03/01 17:37:15;;;;;;;5.15;4.60;;;;;;;20.45;41.98;97423.38;10297033;28;20114;-73
2023/03/01 17:42:34;;;;;;;4.72;4.22;;;;;;;20.45;42.07;97417.97;10298191;28;20106;-72
2023/03/01 17:47:55;;;;;;;5.05;4.55;;;;;;;20.43;41.96;97414.78;10285089;28;20081;-72
2023/03/01 17:53:14;;;;;;;5.32;4.50;;;;;;;20.43;42.31;97420.19;10297379;28;20559;-72
2023/03/01 17:58:34;;;;;;;5.85;4.70;;;;;;;20.41;42.23;97427.06;10297247;28;20146;-73
2023/03/01 18:03:54;;;;;;;5.10;4.30;;;;;;;20.40;42.32;97420.03;10297383;28;20090;-72
2023/03/01 18:09:14;;;;;;;10.65;6.90;;;;;;;20.39;42.63;97423.88;10297423;28;20046;-72
2023/03/01 18:14:33;;;;;;;9.45;7.05;;;;;;;20.37;42.57;97413.34;10311713;28;20039;-73
2023/03/01 18:19:55;;;;;;;9.27;7.00;;;;;;;20.37;42.64;97428.78;10296894;28;20046;-72
2023/03/01 18:25:14;;;;;;;8.38;6.75;;;;;;;20.35;42.52;97418.28;10293468;28;20047;-74
2023/03/01 18:30:34;;;;;;;9.27;6.47;;;;;;;20.34;42.76;97405.84;10291363;28;20066;-72
2023/03/01 18:35:54;;;;;;;7.30;5.95;;;;;;;20.32;42.70;97403.44;10296029;28;20411;-73
2023/03/01 18:41:14;;;;;;;6.97;5.97;;;;;;;20.30;42.78;97400.25;10310312;28;20043;-73
2023/03/01 18:46:35;;;;;;;7.38;6.20;;;;;;;20.30;42.61;97404.88;10310154;28;20054;-74
2023/03/01 18:51:55;;;;;;;7.30;5.82;;;;;;;20.27;42.88;97414.44;10310013;28;20050;-74
2023/03/01 18:57:15;;;;;;;7.40;5.97;;;;;;;20.26;43.00;97410.13;10309875;28;20506;-74
2023/03/01 19:02:34;;;;;;;8.13;5.85;;;;;;;20.25;43.06;97424.78;10296206;28;20047;-73
2023/03/01 19:07:54;;;;;;;9.63;5.55;;;;;;;20.23;43.22;97427.00;10294941;28;20097;-73
2023/03/01 19:13:14;;;;;;;7.38;5.57;;;;;;;20.22;43.25;97427.31;10294692;28;20035;-74
2023/03/01 19:18:34;;;;;;;8.75;5.30;;;;;;;20.20;43.50;97438.44;10308878;28;20035;-72
2023/03/01 19:23:55;;;;;;;9.05;5.57;;;;;;;20.19;43.79;97434.16;10294168;28;20106;-73
2023/03/01 19:29:14;;;;;;;7.60;5.22;;;;;;;20.18;43.80;97440.66;10306842;28;20055;-73
2023/03/01 19:34:35;;;;;;;7.28;5.50;;;;;;;20.17;43.83;97433.66;10308402;28;20043;-74
2023/03/01 19:39:55;;;;;;;7.82;5.68;;;;;;;20.15;43.92;97433.19;10308308;28;20490;-73
2023/03/01 19:45:14;;;;;;;7.22;5.32;;;;;;;20.12;43.95;97431.09;10293412;28;20055;-72
2023/03/01 19:50:34;;;;;;;8.73;5.30;;;;;;;20.12;44.01;97431.09;10293439;28;20054;-73
2023/03/01 19:55:59;;;;;;;8.25;4.97;;;;;;;20.10;43.87;97423.28;10307406;28;20041;-73
2023/03/01 20:01:19;;;;;;;8.70;5.05;;;;;;;20.08;43.98;97416.59;10292979;28;20039;-73
2023/03/01 20:06:40;;;;;;;8.45;5.10;;;;;;;20.06;44.29;97416.09;10307392;28;20046;-73
2023/03/01 20:11:59;;;;;;;9.13;5.38;;;;;;;20.05;44.05;97414.50;10292445;28;20046;-73
2023/03/01 20:17:19;;;;;;;10.88;5.32;;;;;;;20.03;44.04;97420.25;10292418;28;20538;-74
2023/03/01 20:22:39;;;;;;;8.05;5.30;;;;;;;20.02;44.07;97423.25;10292042;28;20043;-74
2023/03/01 20:27:58;;;;;;;6.13;5.13;;;;;;;20.01;44.20;97424.34;10306724;28;20407;-73
2023/03/01 20:33:17;;;;;;;8.05;4.90;;;;;;;20.00;44.40;97422.75;10279370;28;20054;-74
2023/03/01 20:38:37;;;;;;;6.00;5.00;;;;;;;20.01;44.50;97424.34;10291538;28;20042;-73
2023/03/01 20:43:59;;;;;;;6.78;4.72;;;;;;;20.00;44.52;97425.47;10261787;28;20427;-73
2023/03/01 20:49:19;;;;;;;7.32;5.18;;;;;;;20.01;44.67;97429.75;10291680;28;20102;-73
2023/03/01 20:54:38;;;;;;;6.97;4.93;;;;;;;20.02;44.64;97420.53;10291543;28;20488;-73
2023/03/01 20:59:58;;;;;;;7.07;5.07;;;;;;;20.04;44.63;97419.13;10291324;28;20046;-73
2023/03/01 21:05:18;;;;;;;6.90;5.10;;;;;;;20.04;44.62;97419.13;10304850;28;20065;-73
2023/03/01 21:10:38;;;;;;;5.60;4.90;;;;;;;20.06;44.61;97429.63;10309835;28;20098;-74
2023/03/01 21:15:59;;;;;;;5.82;4.50;;;;;;;20.07;44.58;97431.22;10313718;28;20047;-73
2023/03/01 21:21:21;;;;;;;6.40;5.00;;;;;;;20.09;44.54;97426.28;10313370;28;20043;-73
2023/03/01 21:26:41;;;;;;;7.53;5.10;;;;;;;20.10;44.50;97422.47;10296191;28;20034;-74
2023/03/01 21:32:01;;;;;;;6.93;5.10;;;;;;;20.09;44.46;97415.47;10296456;28;20062;-74
2023/03/01 21:37:27;;;;;;;6.07;4.85;;;;;;;20.10;44.52;97408.97;10307990;28;20046;-73
2023/03/01 21:42:48;;;;;;;6.10;4.97;;;;;;;20.10;44.42;97408.97;10309649;28;20038;-74
2023/03/01 21:48:08;;;;;;;5.90;5.30;;;;;;;20.10;44.21;97398.13;10312229;28;20046;-74
2023/03/01 21:53:29;;;;;;;6.28;5.15;;;;;;;20.09;44.21;97394.66;10311143;28;20097;-74
2023/03/01 21:58:49;;;;;;;6.22;4.80;;;;;;;20.08;43.98;97381.44;10297086;28;20050;-74
2023/03/01 22:04:08;;;;;;;5.78;4.65;;;;;;;20.08;44.04;97387.63;10297024;28;20046;-73
2023/03/01 22:09:28;;;;;;;7.03;4.90;;;;;;;20.07;43.86;97374.41;10297088;28;20050;-73
2023/03/01 22:14:48;;;;;;;6.55;5.00;;;;;;;20.07;44.00;97386.06;10296972;28;20046;-73
2023/03/01 22:20:08;;;;;;;5.90;4.72;;;;;;;20.06;43.73;97383.66;10310851;28;20069;-73
2023/03/01 22:25:28;;;;;;;6.38;4.65;;;;;;;20.05;43.62;97382.03;10311131;28;20035;-73
2023/03/01 22:30:48;;;;;;;6.40;4.80;;;;;;;20.04;43.66;97383.16;10290464;28;20051;-73
2023/03/01 22:36:07;;;;;;;5.68;4.70;;;;;;;20.03;43.33;97373.44;10296097;28;20043;-73
2023/03/01 22:41:28;;;;;;;5.95;5.00;;;;;;;20.03;43.46;97368.03;10310365;28;20050;-73
2023/03/01 22:46:49;;;;;;;6.00;4.53;;;;;;;20.01;43.42;97371.03;10310197;28;20069;-73
2023/03/01 22:52:08;;;;;;;7.93;5.00;;;;;;;20.00;43.43;97360.56;10295487;28;20502;-73
2023/03/01 22:57:28;;;;;;;5.22;4.43;;;;;;;20.00;43.37;97364.06;10309985;28;20402;-73
2023/03/01 23:02:47;;;;;;;5.35;4.63;;;;;;;19.99;43.31;97358.97;10309701;28;20323;-73
2023/03/01 23:08:07;;;;;;;4.97;4.47;;;;;;;19.97;43.29;97364.66;10309544;28;20043;-73
2023/03/01 23:13:27;;;;;;;6.50;4.40;;;;;;;19.96;43.21;97365.78;10309328;28;20043;-73
2023/03/01 23:18:46;;;;;;;4.93;4.22;;;;;;;19.95;43.26;97356.91;10294064;28;20043;-73
2023/03/01 23:24:06;;;;;;;5.15;4.65;;;;;;;19.93;43.24;97353.72;10294361;28;20062;-73
2023/03/01 23:29:26;;;;;;;5.57;4.43;;;;;;;19.93;43.17;97358.28;10291887;28;20503;-73
2023/03/01 23:34:45;;;;;;;5.22;4.20;;;;;;;19.91;43.23;97366.72;10293074;28;20046;-73
2023/03/01 23:40:05;;;;;;;5.10;4.20;;;;;;;19.90;43.22;97362.44;10308169;28;20141;-73
2023/03/01 23:45:24;;;;;;;5.20;4.20;;;;;;;19.90;43.17;97358.94;10293421;28;20043;-73
2023/03/01 23:50:44;;;;;;;5.03;4.53;;;;;;;19.87;43.10;97360.34;10294596;28;20129;-73
2023/03/01 23:56:04;;;;;;;4.95;4.20;;;;;;;19.86;43.18;97364.16;10293072;28;20491;-73
